sensor_id;sensor_type;location;lat;lon;timestamp;pressure;altitude;pressure_sealevel;temperature;humidity
43071;BME280;36278;47.952;21.714;2023-05-31T00:00:45;100534.34;;;18.15;63.81
43071;BME280;36278;47.952;21.714;2023-05-31T00:03:10;100531.38;;;18.18;63.57
43071;BME280;36278;47.952;21.714;2023-05-31T00:05:36;100533.00;;;18.11;64.60
43071;BME280;36278;47.952;21.714;2023-05-31T00:08:01;100535.03;;;18.09;65.59
43071;BME280;36278;47.952;21.714;2023-05-31T00:10:26;100535.69;;;18.11;65.66
43071;BME280;36278;47.952;21.714;2023-05-31T00:12:52;100533.00;;;18.11;65.58
43071;BME280;36278;47.952;21.714;2023-05-31T00:15:17;100525.25;;;18.08;65.26
43071;BME280;36278;47.952;21.714;2023-05-31T00:17:42;100525.44;;;18.06;64.68
43071;BME280;36278;47.952;21.714;2023-05-31T00:20:08;100528.13;;;18.06;64.42
43071;BME280;36278;47.952;21.714;2023-05-31T00:22:33;100527.22;;;17.98;64.61
43071;BME280;36278;47.952;21.714;2023-05-31T00:24:58;100526.38;;;17.97;64.60
43071;BME280;36278;47.952;21.714;2023-05-31T00:27:24;100528.91;;;17.99;66.15
43071;BME280;36278;47.952;21.714;2023-05-31T00:29:49;100526.94;;;18.01;64.96
43071;BME280;36278;47.952;21.714;2023-05-31T00:32:14;100524.25;;;18.01;66.05
43071;BME280;36278;47.952;21.714;2023-05-31T00:34:40;100534.09;;;17.92;65.38
43071;BME280;36278;47.952;21.714;2023-05-31T00:37:05;100531.41;;;17.92;65.91
43071;BME280;36278;47.952;21.714;2023-05-31T00:39:30;100524.88;;;17.95;65.40
43071;BME280;36278;47.952;21.714;2023-05-31T00:41:55;100521.19;;;17.96;66.52
43071;BME280;36278;47.952;21.714;2023-05-31T00:44:21;100527.84;;;17.91;65.40
43071;BME280;36278;47.952;21.714;2023-05-31T00:46:46;100528.41;;;17.95;64.72
43071;BME280;36278;47.952;21.714;2023-05-31T00:49:11;100528.84;;;17.90;64.74
43071;BME280;36278;47.952;21.714;2023-05-31T00:51:37;100532.53;;;17.89;66.29
43071;BME280;36278;47.952;21.714;2023-05-31T00:54:05;100536.44;;;17.95;64.75
43071;BME280;36278;47.952;21.714;2023-05-31T00:56:31;100527.19;;;17.89;65.44
43071;BME280;36278;47.952;21.714;2023-05-31T00:58:57;100522.66;;;17.90;65.29
43071;BME280;36278;47.952;21.714;2023-05-31T01:01:23;100534.38;;;17.89;65.75
43071;BME280;36278;47.952;21.714;2023-05-31T01:03:57;100530.84;;;17.88;66.75
43071;BME280;36278;47.952;21.714;2023-05-31T01:06:23;100533.81;;;17.77;65.59
43071;BME280;36278;47.952;21.714;2023-05-31T01:08:49;100544.03;;;17.82;66.49
43071;BME280;36278;47.952;21.714;2023-05-31T01:13:53;100536.94;;;17.73;65.61
43071;BME280;36278;47.952;21.714;2023-05-31T01:16:28;100538.13;;;17.70;65.99
43071;BME280;36278;47.952;21.714;2023-05-31T01:18:59;100538.78;;;17.72;66.38
43071;BME280;36278;47.952;21.714;2023-05-31T01:24:20;100537.34;;;17.60;65.86
43071;BME280;36278;47.952;21.714;2023-05-31T01:26:49;100532.66;;;17.62;67.86
43071;BME280;36278;47.952;21.714;2023-05-31T01:29:18;100541.72;;;17.61;67.22
43071;BME280;36278;47.952;21.714;2023-05-31T01:31:45;100542.22;;;17.64;66.02
43071;BME280;36278;47.952;21.714;2023-05-31T01:34:11;100547.13;;;17.69;65.33
43071;BME280;36278;47.952;21.714;2023-05-31T01:36:36;100548.97;;;17.69;66.87
43071;BME280;36278;47.952;21.714;2023-05-31T01:39:02;100547.06;;;17.61;65.95
43071;BME280;36278;47.952;21.714;2023-05-31T01:41:28;100548.84;;;17.52;67.21
43071;BME280;36278;47.952;21.714;2023-05-31T01:43:54;100543.31;;;17.54;66.76
43071;BME280;36278;47.952;21.714;2023-05-31T01:46:20;100549.63;;;17.45;66.21
43071;BME280;36278;47.952;21.714;2023-05-31T01:48:45;100555.81;;;17.45;65.81
43071;BME280;36278;47.952;21.714;2023-05-31T01:51:11;100546.63;;;17.48;66.39
43071;BME280;36278;47.952;21.714;2023-05-31T01:53:39;100549.97;;;17.50;65.89
43071;BME280;36278;47.952;21.714;2023-05-31T01:56:05;100547.44;;;17.48;65.47
43071;BME280;36278;47.952;21.714;2023-05-31T01:58:32;100549.28;;;17.48;66.18
43071;BME280;36278;47.952;21.714;2023-05-31T02:00:59;100553.66;;;17.49;65.87
43071;BME280;36278;47.952;21.714;2023-05-31T02:03:25;100549.13;;;17.49;65.27
43071;BME280;36278;47.952;21.714;2023-05-31T02:05:54;100554.13;;;17.44;65.60
43071;BME280;36278;47.952;21.714;2023-05-31T02:08:20;100551.81;;;17.49;65.46
43071;BME280;36278;47.952;21.714;2023-05-31T02:10:45;100545.72;;;17.39;65.07
43071;BME280;36278;47.952;21.714;2023-05-31T02:13:10;100542.78;;;17.32;65.46
43071;BME280;36278;47.952;21.714;2023-05-31T02:15:35;100548.16;;;17.32;65.26
43071;BME280;36278;47.952;21.714;2023-05-31T02:18:02;100550.47;;;17.27;66.00
43071;BME280;36278;47.952;21.714;2023-05-31T02:20:28;100553.16;;;17.27;66.05
43071;BME280;36278;47.952;21.714;2023-05-31T02:22:53;100547.47;;;17.30;67.49
43071;BME280;36278;47.952;21.714;2023-05-31T02:25:18;100546.63;;;17.30;65.64
43071;BME280;36278;47.952;21.714;2023-05-31T02:27:44;100548.16;;;17.32;64.96
43071;BME280;36278;47.952;21.714;2023-05-31T02:30:09;100556.03;;;17.34;66.01
43071;BME280;36278;47.952;21.714;2023-05-31T02:32:35;100554.81;;;17.28;65.68
43071;BME280;36278;47.952;21.714;2023-05-31T02:35:05;100554.13;;;17.26;65.14
43071;BME280;36278;47.952;21.714;2023-05-31T02:37:31;100560.25;;;17.19;65.75
43071;BME280;36278;47.952;21.714;2023-05-31T02:39:57;100555.19;;;17.16;65.14
43071;BME280;36278;47.952;21.714;2023-05-31T02:42:22;100562.38;;;17.15;65.43
43071;BME280;36278;47.952;21.714;2023-05-31T02:44:48;100562.06;;;17.18;65.05
43071;BME280;36278;47.952;21.714;2023-05-31T02:47:13;100561.53;;;17.15;65.16
43071;BME280;36278;47.952;21.714;2023-05-31T02:49:38;100563.38;;;17.14;65.72
43071;BME280;36278;47.952;21.714;2023-05-31T02:52:04;100564.06;;;17.16;65.17
43071;BME280;36278;47.952;21.714;2023-05-31T02:54:30;100564.06;;;17.16;65.07
43071;BME280;36278;47.952;21.714;2023-05-31T02:56:55;100567.75;;;17.15;65.29
43071;BME280;36278;47.952;21.714;2023-05-31T02:59:21;100571.94;;;17.18;65.60
43071;BME280;36278;47.952;21.714;2023-05-31T03:01:46;100569.06;;;17.11;65.28
43071;BME280;36278;47.952;21.714;2023-05-31T03:04:12;100564.66;;;17.10;66.23
43071;BME280;36278;47.952;21.714;2023-05-31T03:06:37;100572.69;;;17.10;65.36
43071;BME280;36278;47.952;21.714;2023-05-31T03:09:05;100570.41;;;17.15;65.12
43071;BME280;36278;47.952;21.714;2023-05-31T03:11:32;100570.50;;;17.05;65.14
43071;BME280;36278;47.952;21.714;2023-05-31T03:13:57;100571.56;;;17.13;65.05
43071;BME280;36278;47.952;21.714;2023-05-31T03:16:23;100563.91;;;17.00;65.06
43071;BME280;36278;47.952;21.714;2023-05-31T03:18:50;100570.25;;;16.99;65.34
43071;BME280;36278;47.952;21.714;2023-05-31T03:21:15;100570.94;;;17.01;65.69
43071;BME280;36278;47.952;21.714;2023-05-31T03:23:41;100577.53;;;17.06;64.68
43071;BME280;36278;47.952;21.714;2023-05-31T03:26:06;100579.44;;;16.96;64.96
43071;BME280;36278;47.952;21.714;2023-05-31T03:28:31;100579.97;;;17.00;64.81
43071;BME280;36278;47.952;21.714;2023-05-31T03:31:00;100577.69;;;17.05;66.08
43071;BME280;36278;47.952;21.714;2023-05-31T03:33:25;100583.31;;;17.02;65.72
43071;BME280;36278;47.952;21.714;2023-05-31T03:35:50;100579.13;;;16.99;65.41
43071;BME280;36278;47.952;21.714;2023-05-31T03:38:16;100583.19;;;17.03;65.42
43071;BME280;36278;47.952;21.714;2023-05-31T03:40:41;100584.97;;;17.13;65.39
43071;BME280;36278;47.952;21.714;2023-05-31T03:43:06;100585.13;;;17.11;65.97
43071;BME280;36278;47.952;21.714;2023-05-31T03:45:32;100589.16;;;17.15;65.36
43071;BME280;36278;47.952;21.714;2023-05-31T03:47:57;100590.69;;;17.18;65.30
43071;BME280;36278;47.952;21.714;2023-05-31T03:50:23;100586.03;;;17.20;65.95
43071;BME280;36278;47.952;21.714;2023-05-31T03:52:50;100585.56;;;17.24;65.10
43071;BME280;36278;47.952;21.714;2023-05-31T03:55:15;100591.06;;;17.23;66.11
43071;BME280;36278;47.952;21.714;2023-05-31T03:57:41;100586.31;;;17.17;64.78
43071;BME280;36278;47.952;21.714;2023-05-31T04:00:07;100589.47;;;17.12;66.48
43071;BME280;36278;47.952;21.714;2023-05-31T04:02:32;100595.06;;;17.19;65.55
43071;BME280;36278;47.952;21.714;2023-05-31T04:04:57;100596.75;;;17.20;65.47
43071;BME280;36278;47.952;21.714;2023-05-31T04:07:23;100590.22;;;17.22;65.49
43071;BME280;36278;47.952;21.714;2023-05-31T04:09:48;100591.06;;;17.23;65.62
43071;BME280;36278;47.952;21.714;2023-05-31T04:12:13;100588.56;;;17.21;65.34
43071;BME280;36278;47.952;21.714;2023-05-31T04:14:39;100594.44;;;17.25;65.17
43071;BME280;36278;47.952;21.714;2023-05-31T04:17:04;100600.78;;;17.24;65.22
43071;BME280;36278;47.952;21.714;2023-05-31T04:19:30;100604.63;;;17.21;64.75
43071;BME280;36278;47.952;21.714;2023-05-31T04:21:56;100610.06;;;17.29;64.64
43071;BME280;36278;47.952;21.714;2023-05-31T04:24:21;100609.47;;;17.35;64.63
43071;BME280;36278;47.952;21.714;2023-05-31T04:26:46;100616.09;;;17.31;64.92
43071;BME280;36278;47.952;21.714;2023-05-31T04:29:12;100619.84;;;17.38;64.37
43071;BME280;36278;47.952;21.714;2023-05-31T04:31:37;100621.38;;;17.41;64.76
43071;BME280;36278;47.952;21.714;2023-05-31T04:34:02;100617.41;;;17.45;64.21
43071;BME280;36278;47.952;21.714;2023-05-31T04:36:29;100625.59;;;17.44;64.20
43071;BME280;36278;47.952;21.714;2023-05-31T04:38:54;100614.41;;;17.48;64.07
43071;BME280;36278;47.952;21.714;2023-05-31T04:41:21;100627.81;;;17.48;63.79
43071;BME280;36278;47.952;21.714;2023-05-31T04:43:51;100626.34;;;17.54;64.00
43071;BME280;36278;47.952;21.714;2023-05-31T04:46:17;100625.53;;;17.53;63.59
43071;BME280;36278;47.952;21.714;2023-05-31T04:48:44;100631.25;;;17.58;63.05
43071;BME280;36278;47.952;21.714;2023-05-31T04:51:09;100631.63;;;17.63;63.01
43071;BME280;36278;47.952;21.714;2023-05-31T04:53:34;100633.16;;;17.66;63.51
43071;BME280;36278;47.952;21.714;2023-05-31T04:56:00;100640.63;;;17.72;62.95
43071;BME280;36278;47.952;21.714;2023-05-31T04:58:29;100638.94;;;17.71;63.35
43071;BME280;36278;47.952;21.714;2023-05-31T05:00:55;100645.69;;;17.65;63.12
43071;BME280;36278;47.952;21.714;2023-05-31T05:03:20;100646.13;;;17.71;63.33
43071;BME280;36278;47.952;21.714;2023-05-31T05:05:45;100646.13;;;17.71;63.47
43071;BME280;36278;47.952;21.714;2023-05-31T05:08:11;100643.69;;;17.77;64.11
43071;BME280;36278;47.952;21.714;2023-05-31T05:10:36;100647.72;;;17.81;62.72
43071;BME280;36278;47.952;21.714;2023-05-31T05:13:02;100641.91;;;17.86;61.77
43071;BME280;36278;47.952;21.714;2023-05-31T05:15:27;100651.13;;;18.09;61.11
43071;BME280;36278;47.952;21.714;2023-05-31T05:17:52;100649.09;;;18.29;61.53
43071;BME280;36278;47.952;21.714;2023-05-31T05:20:18;100649.56;;;18.51;59.59
43071;BME280;36278;47.952;21.714;2023-05-31T05:22:48;100652.19;;;18.68;60.76
43071;BME280;36278;47.952;21.714;2023-05-31T05:25:14;100655.66;;;18.95;58.92
43071;BME280;36278;47.952;21.714;2023-05-31T05:27:39;100660.34;;;18.93;57.25
43071;BME280;36278;47.952;21.714;2023-05-31T05:30:05;100658.81;;;18.82;57.71
43071;BME280;36278;47.952;21.714;2023-05-31T05:32:30;100670.66;;;18.71;58.78
43071;BME280;36278;47.952;21.714;2023-05-31T05:34:55;100660.41;;;18.67;56.68
43071;BME280;36278;47.952;21.714;2023-05-31T05:37:21;100656.81;;;18.58;57.70
43071;BME280;36278;47.952;21.714;2023-05-31T05:39:46;100665.69;;;18.59;57.81
43071;BME280;36278;47.952;21.714;2023-05-31T05:42:11;100661.19;;;18.59;56.91
43071;BME280;36278;47.952;21.714;2023-05-31T05:44:37;100665.69;;;18.59;56.75
43071;BME280;36278;47.952;21.714;2023-05-31T05:47:02;100662.00;;;18.60;57.11
43071;BME280;36278;47.952;21.714;2023-05-31T05:49:27;100668.00;;;18.54;56.88
43071;BME280;36278;47.952;21.714;2023-05-31T05:51:53;100658.75;;;18.48;57.25
43071;BME280;36278;47.952;21.714;2023-05-31T05:54:18;100669.53;;;18.56;57.35
43071;BME280;36278;47.952;21.714;2023-05-31T05:56:43;100671.22;;;18.57;56.60
43071;BME280;36278;47.952;21.714;2023-05-31T05:59:09;100670.41;;;18.65;57.32
43071;BME280;36278;47.952;21.714;2023-05-31T06:01:34;100671.91;;;18.59;57.02
43071;BME280;36278;47.952;21.714;2023-05-31T06:04:00;100674.44;;;18.61;56.88
43071;BME280;36278;47.952;21.714;2023-05-31T06:06:26;100669.19;;;18.51;56.51
43071;BME280;36278;47.952;21.714;2023-05-31T06:08:51;100673.03;;;18.57;56.81
43071;BME280;36278;47.952;21.714;2023-05-31T06:11:16;100668.19;;;18.52;56.99
43071;BME280;36278;47.952;21.714;2023-05-31T06:13:43;100674.59;;;18.59;56.76
43071;BME280;36278;47.952;21.714;2023-05-31T06:16:09;100671.03;;;18.76;56.66
43071;BME280;36278;47.952;21.714;2023-05-31T06:18:34;100675.34;;;19.12;56.60
43071;BME280;36278;47.952;21.714;2023-05-31T06:21:00;100666.22;;;19.39;55.67
43071;BME280;36278;47.952;21.714;2023-05-31T06:23:25;100669.13;;;19.62;54.01
43071;BME280;36278;47.952;21.714;2023-05-31T06:25:51;100663.09;;;19.84;54.58
43071;BME280;36278;47.952;21.714;2023-05-31T06:28:16;100664.09;;;19.91;54.44
43071;BME280;36278;47.952;21.714;2023-05-31T06:30:41;100665.97;;;19.99;52.88
43071;BME280;36278;47.952;21.714;2023-05-31T06:33:07;100673.00;;;20.16;53.81
43071;BME280;36278;47.952;21.714;2023-05-31T06:35:32;100671.97;;;20.25;52.44
43071;BME280;36278;47.952;21.714;2023-05-31T06:37:58;100677.53;;;20.32;52.94
43071;BME280;36278;47.952;21.714;2023-05-31T06:40:23;100669.28;;;20.50;52.09
43071;BME280;36278;47.952;21.714;2023-05-31T06:42:49;100679.16;;;20.65;51.47
43071;BME280;36278;47.952;21.714;2023-05-31T06:45:14;100672.75;;;20.75;52.59
43071;BME280;36278;47.952;21.714;2023-05-31T06:47:39;100669.00;;;20.84;51.07
43071;BME280;36278;47.952;21.714;2023-05-31T06:50:05;100669.16;;;20.90;50.96
43071;BME280;36278;47.952;21.714;2023-05-31T06:52:31;100678.19;;;21.06;50.09
43071;BME280;36278;47.952;21.714;2023-05-31T06:54:56;100675.31;;;21.07;50.45
43071;BME280;36278;47.952;21.714;2023-05-31T06:57:21;100674.66;;;21.05;48.65
43071;BME280;36278;47.952;21.714;2023-05-31T06:59:47;100679.38;;;21.03;48.97
43071;BME280;36278;47.952;21.714;2023-05-31T07:02:12;100679.19;;;21.05;49.42
43071;BME280;36278;47.952;21.714;2023-05-31T07:04:37;100681.88;;;21.05;48.91
43071;BME280;36278;47.952;21.714;2023-05-31T07:07:03;100676.94;;;21.16;49.13
43071;BME280;36278;47.952;21.714;2023-05-31T07:09:29;100680.97;;;21.29;49.06
43071;BME280;36278;47.952;21.714;2023-05-31T07:11:54;100680.41;;;21.33;48.61
43071;BME280;36278;47.952;21.714;2023-05-31T07:14:20;100688.94;;;21.45;47.90
43071;BME280;36278;47.952;21.714;2023-05-31T07:16:47;100690.09;;;21.50;47.68
43071;BME280;36278;47.952;21.714;2023-05-31T07:19:12;100686.50;;;21.58;47.40
43071;BME280;36278;47.952;21.714;2023-05-31T07:21:37;100682.38;;;21.70;47.74
43071;BME280;36278;47.952;21.714;2023-05-31T07:24:02;100688.97;;;21.68;47.53
43071;BME280;36278;47.952;21.714;2023-05-31T07:26:28;100684.72;;;21.73;48.36
43071;BME280;36278;47.952;21.714;2023-05-31T07:28:53;100687.00;;;21.85;47.52
43071;BME280;36278;47.952;21.714;2023-05-31T07:31:19;100682.38;;;21.70;47.22
43071;BME280;36278;47.952;21.714;2023-05-31T07:33:45;100684.19;;;21.78;47.60
43071;BME280;36278;47.952;21.714;2023-05-31T07:36:11;100682.78;;;22.05;47.09
43071;BME280;36278;47.952;21.714;2023-05-31T07:38:36;100686.09;;;22.15;46.59
43071;BME280;36278;47.952;21.714;2023-05-31T07:41:02;100684.25;;;22.16;47.14
43071;BME280;36278;47.952;21.714;2023-05-31T07:43:27;100680.53;;;22.31;46.35
43071;BME280;36278;47.952;21.714;2023-05-31T07:45:54;100677.84;;;22.31;47.25
43071;BME280;36278;47.952;21.714;2023-05-31T07:48:20;100671.44;;;22.47;46.27
43071;BME280;36278;47.952;21.714;2023-05-31T07:50:46;100665.69;;;22.65;47.12
43071;BME280;36278;47.952;21.714;2023-05-31T07:53:11;100668.00;;;22.68;45.58
43071;BME280;36278;47.952;21.714;2023-05-31T07:55:37;100669.47;;;22.56;46.37
43071;BME280;36278;47.952;21.714;2023-05-31T07:58:02;100674.34;;;22.75;45.75
43071;BME280;36278;47.952;21.714;2023-05-31T08:00:28;100672.13;;;22.93;46.09
43071;BME280;36278;47.952;21.714;2023-05-31T08:02:54;100663.81;;;22.95;45.09
43071;BME280;36278;47.952;21.714;2023-05-31T08:05:20;100667.75;;;23.07;45.46
43071;BME280;36278;47.952;21.714;2023-05-31T08:07:46;100668.56;;;23.08;45.18
43071;BME280;36278;47.952;21.714;2023-05-31T08:10:12;100668.19;;;22.96;45.00
43071;BME280;36278;47.952;21.714;2023-05-31T08:12:39;100663.28;;;23.00;46.12
43071;BME280;36278;47.952;21.714;2023-05-31T08:15:05;100662.88;;;23.03;45.97
43071;BME280;36278;47.952;21.714;2023-05-31T08:17:31;100667.25;;;23.04;45.49
43071;BME280;36278;47.952;21.714;2023-05-31T08:19:56;100664.19;;;23.07;45.79
43071;BME280;36278;47.952;21.714;2023-05-31T08:22:22;100668.81;;;23.28;45.17
43071;BME280;36278;47.952;21.714;2023-05-31T08:24:47;100663.34;;;23.42;45.70
43071;BME280;36278;47.952;21.714;2023-05-31T08:27:14;100662.69;;;23.76;44.33
43071;BME280;36278;47.952;21.714;2023-05-31T08:29:40;100661.84;;;23.97;44.13
43071;BME280;36278;47.952;21.714;2023-05-31T08:32:05;100660.88;;;24.05;44.01
43071;BME280;36278;47.952;21.714;2023-05-31T08:34:31;100668.41;;;24.10;43.95
43071;BME280;36278;47.952;21.714;2023-05-31T08:36:56;100661.94;;;24.11;44.39
43071;BME280;36278;47.952;21.714;2023-05-31T08:39:23;100656.69;;;24.30;44.97
43071;BME280;36278;47.952;21.714;2023-05-31T08:44:17;100667.53;;;24.30;44.17
43071;BME280;36278;47.952;21.714;2023-05-31T08:46:44;100664.13;;;24.22;44.73
43071;BME280;36278;47.952;21.714;2023-05-31T08:49:10;100663.91;;;24.45;43.59
43071;BME280;36278;47.952;21.714;2023-05-31T08:51:36;100665.66;;;24.59;43.62
43071;BME280;36278;47.952;21.714;2023-05-31T08:54:02;100663.72;;;24.46;42.86
43071;BME280;36278;47.952;21.714;2023-05-31T08:56:29;100657.75;;;24.29;42.70
43071;BME280;36278;47.952;21.714;2023-05-31T08:58:55;100659.53;;;24.44;43.22
43071;BME280;36278;47.952;21.714;2023-05-31T09:01:21;100661.38;;;24.37;42.68
43071;BME280;36278;47.952;21.714;2023-05-31T09:03:47;100662.47;;;24.49;43.55
43071;BME280;36278;47.952;21.714;2023-05-31T09:06:13;100659.25;;;24.67;43.02
43071;BME280;36278;47.952;21.714;2023-05-31T09:08:38;100652.91;;;24.87;42.57
43071;BME280;36278;47.952;21.714;2023-05-31T09:11:05;100661.28;;;24.93;43.34
43071;BME280;36278;47.952;21.714;2023-05-31T09:13:31;100657.53;;;24.94;42.03
43071;BME280;36278;47.952;21.714;2023-05-31T09:15:57;100663.28;;;24.84;41.75
43071;BME280;36278;47.952;21.714;2023-05-31T09:18:22;100654.81;;;25.00;41.35
43071;BME280;36278;47.952;21.714;2023-05-31T09:20:50;100660.91;;;24.61;42.42
43071;BME280;36278;47.952;21.714;2023-05-31T09:23:18;100652.56;;;24.63;42.11
43071;BME280;36278;47.952;21.714;2023-05-31T09:26:05;100645.16;;;24.78;42.05
43071;BME280;36278;47.952;21.714;2023-05-31T09:28:30;100648.22;;;25.03;41.78
43071;BME280;36278;47.952;21.714;2023-05-31T09:31:06;100647.72;;;24.99;42.29
43071;BME280;36278;47.952;21.714;2023-05-31T09:33:39;100639.91;;;25.11;42.03
43071;BME280;36278;47.952;21.714;2023-05-31T09:36:06;100647.28;;;25.37;41.18
43071;BME280;36278;47.952;21.714;2023-05-31T09:38:32;100646.19;;;24.83;41.50
43071;BME280;36278;47.952;21.714;2023-05-31T09:43:43;100640.38;;;25.41;41.98
43071;BME280;36278;47.952;21.714;2023-05-31T09:46:12;100641.19;;;25.28;40.39
43071;BME280;36278;47.952;21.714;2023-05-31T09:48:38;100632.06;;;25.49;41.02
43071;BME280;36278;47.952;21.714;2023-05-31T09:51:08;100622.25;;;25.48;41.23
43071;BME280;36278;47.952;21.714;2023-05-31T09:53:41;100635.16;;;25.33;41.16
43071;BME280;36278;47.952;21.714;2023-05-31T09:56:11;100623.09;;;25.42;41.00
43071;BME280;36278;47.952;21.714;2023-05-31T09:58:37;100625.41;;;25.58;40.61
43071;BME280;36278;47.952;21.714;2023-05-31T10:01:04;100621.19;;;25.36;41.62
43071;BME280;36278;47.952;21.714;2023-05-31T10:03:31;100621.41;;;25.48;41.44
43071;BME280;36278;47.952;21.714;2023-05-31T10:05:59;100619.16;;;25.58;40.14
43071;BME280;36278;47.952;21.714;2023-05-31T10:08:25;100622.31;;;25.81;40.01
43071;BME280;36278;47.952;21.714;2023-05-31T10:10:51;100625.66;;;25.77;40.42
43071;BME280;36278;47.952;21.714;2023-05-31T10:13:18;100621.91;;;25.84;39.41
43071;BME280;36278;47.952;21.714;2023-05-31T10:15:46;100615.44;;;25.85;39.72
43071;BME280;36278;47.952;21.714;2023-05-31T10:18:14;100617.94;;;25.80;39.74
43071;BME280;36278;47.952;21.714;2023-05-31T10:21:26;100613.94;;;25.69;41.00
43071;BME280;36278;47.952;21.714;2023-05-31T10:23:27;100613.78;;;25.91;41.36
43071;BME280;36278;47.952;21.714;2023-05-31T10:28:37;100596.84;;;26.09;38.77
43071;BME280;36278;47.952;21.714;2023-05-31T10:31:04;100611.88;;;26.24;39.01
43071;BME280;36278;47.952;21.714;2023-05-31T10:33:30;100610.19;;;26.17;38.43
43071;BME280;36278;47.952;21.714;2023-05-31T10:35:59;100610.81;;;26.25;38.72
43071;BME280;36278;47.952;21.714;2023-05-31T10:38:32;100614.56;;;26.24;39.67
43071;BME280;36278;47.952;21.714;2023-05-31T10:41:04;100615.63;;;26.17;39.09
43071;BME280;36278;47.952;21.714;2023-05-31T10:43:42;100604.38;;;26.07;38.36
43071;BME280;36278;47.952;21.714;2023-05-31T10:46:09;100607.06;;;26.13;39.57
43071;BME280;36278;47.952;21.714;2023-05-31T10:51:45;100608.13;;;25.73;40.45
43071;BME280;36278;47.952;21.714;2023-05-31T10:54:21;100606.66;;;25.96;40.77
43071;BME280;36278;47.952;21.714;2023-05-31T10:56:57;100605.00;;;26.09;40.90
43071;BME280;36278;47.952;21.714;2023-05-31T10:59:23;100601.84;;;26.05;38.66
43071;BME280;36278;47.952;21.714;2023-05-31T11:01:49;100604.56;;;26.25;40.53
43071;BME280;36278;47.952;21.714;2023-05-31T11:04:22;100602.47;;;26.40;39.27
43071;BME280;36278;47.952;21.714;2023-05-31T11:06:52;100597.66;;;26.42;39.14
43071;BME280;36278;47.952;21.714;2023-05-31T11:09:18;100596.41;;;26.32;38.41
43071;BME280;36278;47.952;21.714;2023-05-31T11:11:47;100591.16;;;26.50;38.26
43071;BME280;36278;47.952;21.714;2023-05-31T11:19:25;100578.94;;;27.49;37.35
43071;BME280;36278;47.952;21.714;2023-05-31T11:21:53;100586.78;;;27.63;37.12
43071;BME280;36278;47.952;21.714;2023-05-31T11:24:30;100580.97;;;27.85;36.43
43071;BME280;36278;47.952;21.714;2023-05-31T11:26:59;100580.72;;;27.68;36.26
43071;BME280;36278;47.952;21.714;2023-05-31T11:29:41;100571.59;;;27.81;36.78
43071;BME280;36278;47.952;21.714;2023-05-31T11:32:13;100564.47;;;28.05;36.15
43071;BME280;36278;47.952;21.714;2023-05-31T11:37:21;100562.13;;;28.82;34.62
43071;BME280;36278;47.952;21.714;2023-05-31T11:39:47;100551.78;;;28.90;35.12
43071;BME280;36278;47.952;21.714;2023-05-31T11:42:13;100559.88;;;28.97;34.95
43071;BME280;36278;47.952;21.714;2023-05-31T11:44:42;100552.59;;;29.51;34.42
43071;BME280;36278;47.952;21.714;2023-05-31T11:47:09;100552.00;;;29.61;34.00
43071;BME280;36278;47.952;21.714;2023-05-31T11:49:35;100555.94;;;29.76;33.72
43071;BME280;36278;47.952;21.714;2023-05-31T11:52:01;100543.41;;;29.45;34.26
43071;BME280;36278;47.952;21.714;2023-05-31T11:54:27;100541.16;;;29.42;34.00
43071;BME280;36278;47.952;21.714;2023-05-31T11:57:01;100542.91;;;28.95;34.86
43071;BME280;36278;47.952;21.714;2023-05-31T11:59:27;100546.16;;;28.85;35.58
43071;BME280;36278;47.952;21.714;2023-05-31T12:01:56;100542.19;;;28.99;34.29
43071;BME280;36278;47.952;21.714;2023-05-31T12:04:27;100544.66;;;28.71;34.22
43071;BME280;36278;47.952;21.714;2023-05-31T12:06:52;100540.72;;;27.69;35.86
43071;BME280;36278;47.952;21.714;2023-05-31T12:09:17;100543.84;;;27.02;37.37
43071;BME280;36278;47.952;21.714;2023-05-31T12:11:43;100537.31;;;27.17;37.84
43071;BME280;36278;47.952;21.714;2023-05-31T12:14:11;100534.03;;;27.01;37.87
43071;BME280;36278;47.952;21.714;2023-05-31T12:16:36;100527.53;;;27.09;37.48
43071;BME280;36278;47.952;21.714;2023-05-31T12:19:01;100531.75;;;27.05;38.26
43071;BME280;36278;47.952;21.714;2023-05-31T12:21:27;100543.72;;;26.91;39.32
43071;BME280;36278;47.952;21.714;2023-05-31T12:23:53;100537.38;;;26.65;38.10
43071;BME280;36278;47.952;21.714;2023-05-31T12:26:19;100527.50;;;26.71;38.48
43071;BME280;36278;47.952;21.714;2023-05-31T12:28:46;100522.41;;;26.88;39.39
43071;BME280;36278;47.952;21.714;2023-05-31T12:31:18;100519.38;;;27.09;37.99
43071;BME280;36278;47.952;21.714;2023-05-31T12:33:50;100521.72;;;26.99;38.99
43071;BME280;36278;47.952;21.714;2023-05-31T12:36:16;100527.53;;;27.09;38.07
43071;BME280;36278;47.952;21.714;2023-05-31T12:38:42;100517.75;;;26.95;39.66
43071;BME280;36278;47.952;21.714;2023-05-31T12:41:07;100518.16;;;26.98;36.94
43071;BME280;36278;47.952;21.714;2023-05-31T12:43:32;100513.63;;;26.86;37.84
43071;BME280;36278;47.952;21.714;2023-05-31T12:45:58;100520.78;;;26.80;37.40
43071;BME280;36278;47.952;21.714;2023-05-31T12:48:24;100514.75;;;26.71;39.28
43071;BME280;36278;47.952;21.714;2023-05-31T12:50:49;100517.19;;;26.48;37.55
43071;BME280;36278;47.952;21.714;2023-05-31T12:53:15;100508.38;;;26.46;38.73
43071;BME280;36278;47.952;21.714;2023-05-31T12:55:41;100518.09;;;26.09;38.72
43071;BME280;36278;47.952;21.714;2023-05-31T12:58:07;100515.75;;;26.32;39.25
43071;BME280;36278;47.952;21.714;2023-05-31T13:00:32;100503.19;;;26.44;38.11